WEATHER DATA

YESTERDAY
Time Temp. Dewp. Hum. Wind dir Wind speed Wind gust Bar. 1h Prec. 24h Prec.
00:05 18.3 10.7 61 207 2.5 4.4 1005.4 0.0000 0.0000
00:15 18.1 10.5 61 211 2.2 3.3 1005.3 0.0000 0.0000
00:25 17.9 10.5 62 188 2.5 6.1 1005.4 0.0000 0.0000
00:35 17.8 10.7 63 189 2.8 4.4 1005.3 0.0000 0.0000
00:40 17.7 10.6 63 208 2.8 5 1005.3 0.0000 0.0000
00:56 17.5 10.6 64 256 2.8 6.1 1005.1 0.0000 0.0000
01:06 17.3 10.4 64 270 2.8 4.7 1005.2 0.0000 0.0000
01:15 17.2 10.6 65 251 2.5 4.2 1005.1 0.0000 0.0000
01:26 17 10.4 65 320 2.5 5 1004.8 0.0000 0.0000
01:36 16.9 10.3 65 5 3.1 6.4 1004.7 0.0000 0.0000
01:45 16.7 10.3 66 15 2.8 4.7 1004.5 0.0000 0.0000
02:05 16.4 10.3 67 29 2.5 5.6 1004.4 0.0000 0.0000
02:16 16.3 10.2 67 24 2.2 4.4 1004.4 0.0000 0.0000
02:26 16.2 10.1 67 3 2.5 6.7 1004.2 0.0000 0.0000
02:36 16.1 10 67 21 2.2 4.4 1004.3 0.0000 0.0000
02:47 16 10.1 68 40 2.2 5 1004.2 0.0000 0.0000
02:56 15.9 9.8 67 17 2.2 5.8 1004.1 0.0000 0.0000
03:06 15.8 9.9 68 2.8 6.7 1004.2 0.0000 0.0000
03:13 15.7 9.8 68 252 3.3 9.4 1004.1 0.0000 0.0000
03:23 15.6 9.7 68 238 4.7 8.1 1004 0.0000 0.0000
03:33 15.5 9.6 68 235 4.7 7.5 1004 0.0000 0.0000
03:43 15.4 9.5 68 234 5.8 8.1 1004 0.0000 0.0000
03:53 15.3 9.4 68 228 5.6 8.3 1003.8 0.0000 0.0000
04:04 15.3 9.4 68 229 5.8 8.1 1003.7 0.0000 0.0000
04:13 15.2 9.3 68 229 5.6 8.9 1003.5 0.0000 0.0000
04:23 15.1 9.2 68 232 5.3 8.1 1003.6 0.0000 0.0000
04:34 15 9.1 68 233 3.9 6.1 1003.5 0.0000 0.0000
04:44 14.8 9 68 229 3.1 6.1 1003.3 0.0000 0.0000
04:54 14.6 9 69 223 3.1 6.4 1003.6 0.0000 0.0000
05:03 14.6 9 69 225 3.6 6.4 1003.4 0.0000 0.0000
05:14 14.5 8.9 69 227 3.1 5.8 1003.3 0.0000 0.0000
05:24 14.5 8.9 69 230 4.2 6.9 1003.3 0.0000 0.0000
05:34 14.5 8.9 69 236 6.1 9.7 1003.2 0.0000 0.0000
05:44 14.6 9 69 356 3.1 7.2 1003.2 0.0000 0.0000
05:52 14.8 9.2 69 328 3.3 10.8 1003.2 0.0000 0.0000
06:02 15.2 9.3 68 2.8 5.8 1003 0.0000 0.0000
06:12 15.6 9.5 67 103 3.1 5 1002.9 0.0000 0.0000
06:32 16.8 9.7 63 157 4.4 8.3 1002.9 0.0000 0.0000
06:43 17.3 10 62 174 3.6 7.5 1002.8 0.0000 0.0000
06:55 18 10.1 60 156 4.2 9.7 1002.8 0.0000 0.0000
07:11 18.7 10.5 59 149 6.1 13.9 1002.6 0.0000 0.0000
07:21 19.4 10.9 58 161 5 10.8 1002.7 0.0000 0.0000
07:31 20 11.2 57 182 4.2 10.3 1002.6 0.0000 0.0000
07:41 20.6 11.3 55 154 5.3 11.7 1002.5 0.0000 0.0000
07:51 21.2 11.5 54 178 4.2 11.1 1002.3 0.0000 0.0000
08:01 21.6 11.6 53 219 3.1 11.4 1002.3 0.0000 0.0000
08:11 22.1 11.8 52 187 3.9 11.9 1002.2 0.0000 0.0000
08:22 22.4 11.8 51 243 2.2 3.6 1002.2 0.0000 0.0000
08:23 22.5 11.9 51 234 2.2 7.8 1002.2 0.0000 0.0000
08:34 22.8 12.1 51 231 2.2 6.1 1002.2 0.0000 0.0000
08:53 23.8 12.8 50 240 2.2 3.6 1002.1 0.0000 0.0000
09:04 24.4 13 49 240 2.5 3.6 1002.2 0.0000 0.0000
09:14 24.9 13.1 48 235 2.2 3.3 1002.1 0.0000 0.0000
09:24 25.4 13.3 47 239 2.5 3.6 1001.8 0.0000 0.0000
09:33 25.7 13.6 47 229 2.2 3.3 1001.9 0.0000 0.0000
09:44 26.3 13.8 46 233 2.5 3.6 1001.9 0.0000 0.0000
09:54 26.8 13.9 45 236 2.5 4.2 1002 0.0000 0.0000
10:04 27.2 13.5 43 233 2.2 3.3 1001.7 0.0000 0.0000
10:14 27.5 13.8 43 236 2.2 3.3 1001.7 0.0000 0.0000
10:24 27.9 13.8 42 234 2.2 3.3 1001.8 0.0000 0.0000
10:34 28.2 14.1 42 238 2.5 3.6 1001.8 0.0000 0.0000
10:44 28.7 14.2 41 235 2.5 4.2 1001.6 0.0000 0.0000
10:55 29.1 14.1 40 239 2.8 4.4 1001.7 0.0000 0.0000
11:05 29.3 14.3 40 236 2.5 4.2 1001.7 0.0000 0.0000
11:14 29.7 14.3 39 240 2.5 3.9 1001.6 0.0000 0.0000
11:24 29.9 14.1 38 246 2.8 4.4 1001.4 0.0000 0.0000
11:35 30.4 14.5 38 265 3.1 4.4 1001.4 0.0000 0.0000
11:45 30.8 14.9 38 270 3.1 4.2 1001.4 0.0000 0.0000
11:55 31 14.6 37 270 3.3 4.4 1001.2 0.0000 0.0000
12:05 31.4 14.5 36 262 3.1 4.4 1001.1 0.0000 0.0000
12:15 31.9 14.1 34 270 3.1 4.4 1001 0.0000 0.0000
12:25 32.3 12.5 30 270 3.3 4.7 1000.9 0.0000 0.0000
12:35 32.8 11.9 28 338 3.1 4.2 1000.9 0.0000 0.0000
12:46 33.1 11.6 27 346 2.8 3.9 1000.8 0.0000 0.0000
12:56 33.4 11.9 27 349 3.1 5 1000.9 0.0000 0.0000
13:05 33.6 11.5 26 338 2.8 3.6 1001 0.0000 0.0000
13:16 33.9 11.7 26 357 3.1 4.2 1000.8 0.0000 0.0000
13:26 34.1 11.3 25 346 3.3 4.4 1000.6 0.0000 0.0000
13:36 34.3 11.5 25 3 3.3 4.2 1000.7 0.0000 0.0000
13:46 34 11.2 25 351 3.1 3.9 1000.6 0.0000 0.0000
13:56 34 11.8 26 342 3.3 4.2 1000.4 0.0000 0.0000
14:06 33.9 12.3 27 349 3.3 4.4 1000.2 0.0000 0.0000
14:16 34 12.4 27 348 3.3 4.4 1000 0.0000 0.0000
14:26 33.7 12.1 27 358 3.6 4.7 1000.1 0.0000 0.0000
14:37 33.7 12.1 27 351 3.3 3.9 1000 0.0000 0.0000
14:46 33.6 12 27 343 3.1 4.7 999.9 0.0000 0.0000
14:56 33.6 12 27 353 3.3 4.2 999.7 0.0000 0.0000
15:07 33.4 11.3 26 348 3.6 4.4 999.6 0.0000 0.0000
15:17 33.3 11.8 27 344 3.1 4.2 999.4 0.0000 0.0000
15:27 33.3 11.2 26 1 3.6 4.7 999.3 0.0000 0.0000
15:37 33.1 11.6 27 337 3.1 5 999.3 0.0000 0.0000
15:47 32.9 11.4 27 340 3.3 4.7 999.4 0.0000 0.0000
15:57 32.7 11.3 27 347 3.1 5.3 999.3 0.0000 0.0000
16:07 32.8 11.4 27 347 3.3 4.4 999.2 0.0000 0.0000
16:18 32.7 11.8 28 341 3.3 4.7 999.2 0.0000 0.0000
16:27 32.4 11.6 28 349 2.8 3.9 999 0.0000 0.0000
16:37 32.3 12 29 347 3.3 4.4 999.1 0.0000 0.0000
16:47 32.2 11.9 29 350 2.8 3.6 999 0.0000 0.0000
16:58 32 11.8 29 350 3.1 3.9 999.1 0.0000 0.0000
17:08 31.9 12.2 30 349 3.1 4.2 999 0.0000 0.0000
17:17 31.8 12.1 30 343 3.1 4.2 999.1 0.0000 0.0000
17:28 31.8 12.6 31 356 3.3 5 999 0.0000 0.0000
17:38 31.7 12.5 31 346 3.3 4.4 998.9 0.0000 0.0000
17:48 31.6 12.9 32 1 3.1 3.9 999 0.0000 0.0000
17:58 31.2 12.6 32 273 3.3 4.4 999 0.0000 0.0000
18:08 30.7 12.6 33 270 3.1 4.4 999.1 0.0000 0.0000
18:18 30.2 12.6 34 260 3.1 5 999.2 0.0000 0.0000
18:28 29.7 12.6 35 249 2.8 4.7 999.2 0.0000 0.0000
18:39 29.5 12.4 35 255 3.1 4.2 998.9 0.0000 0.0000
18:49 29.1 12.5 36 237 2.5 3.6 998.9 0.0000 0.0000
18:58 28.9 12.8 37 242 2.8 4.2 998.9 0.0000 0.0000
19:08 28.8 12.7 37 247 2.8 5.3 998.9 0.0000 0.0000
19:19 28.8 12.7 37 250 2.8 4.4 998.8 0.0000 0.0000
19:29 28.8 12.7 37 238 2.8 3.9 998.9 0.0000 0.0000
19:39 28.6 12.5 37 238 2.5 5 998.8 0.0000 0.0000
19:49 28.3 12.6 38 228 2.2 4.4 998.9 0.0000 0.0000
19:59 28 12.8 39 229 2.2 3.3 999.1 0.0000 0.0000
20:09 27.4 12.6 40 231 2.2 3.3 999.1 0.0000 0.0000
20:19 26.8 12.1 40 235 2.2 3.1 999.1 0.0000 0.0000
20:30 26.2 11.5 40 235 2.2 3.3 999.4 0.0000 0.0000
20:39 25.7 11.1 40 236 2.2 3.3 999.4 0.0000 0.0000
20:49 25.2 11 41 239 2.2 3.3 999.3 0.0000 0.0000
20:59 24.8 10.7 41 236 2.2 3.6 999.4 0.0000 0.0000
21:10 24.5 10.8 42 235 2.2 3.1 999.6 0.0000 0.0000
21:20 24.3 10.6 42 238 2.2 3.3 999.5 0.0000 0.0000
21:30 24.1 10.8 43 239 2.5 3.6 999.6 0.0000 0.0000
21:40 23.8 10.8 44 241 2.2 3.3 999.7 0.0000 0.0000
21:50 23.5 10.6 44 240 2.2 3.6 999.7 0.0000 0.0000
22:00 23.3 10.7 45 237 2.2 3.3 999.8 0.0000 0.0000
22:10 23.1 10.9 46 241 2.2 4.2 999.7 0.0000 0.0000
22:21 22.8 10.6 46 242 2.5 3.6 999.6 0.0000 0.0000
22:30 22.6 10.7 47 236 2.5 3.6 999.7 0.0000 0.0000
22:40 22.4 10.5 47 242 2.5 4.2 999.6 0.0000 0.0000
22:51 22.2 10.4 47 239 2.5 4.4 999.6 0.0000 0.0000
23:01 22 10.5 48 240 2.5 3.6 999.4 0.0000 0.0000
23:11 21.8 10.3 48 232 2.5 7.2 999.5 0.0000 0.0000
23:20 21.7 10.5 49 231 2.8 8.1 999.4 0.0000 0.0000
23:31 21.5 10.3 49 225 3.1 9.2 999.3 0.0000 0.0000
23:41 21.3 10.5 50 220 2.8 8.9 999.2 0.0000 0.0000
23:51 21.2 10.4 50 215 3.1 8.3 999.3 0.0000 0.0000

DAY STATISTIC

2021-05-11
TEMPERATURE
AVERAGE
24.7
HIGH
34.3
13:36
LOW
14.5
05:14
PRESSURE
AVERAGE
1001.3
HIGH
1005.4
00:05
LOW
998.8
19:19
DEWPOINT
AVERAGE
11.4
HIGH
14.9
11:45
LOW
8.9
05:14
HUMIDITY
AVERAGE
46
HIGH
69
04:54
LOW
25
13:26
WIND SPEED
AVERAGE
3.1
HIGH
6.1
05:34
WIND GUST
AVERAGE
5.3
HIGH
13.9
07:11
WIND DIRECTION
PREVAILING
SW
47.9%
N
26.4
NE
2.1
E
0.7
SE
2.9
S
5.0
SW
47.9
W
11.4
NW
2.1
PRECIPITATION
RAIN HOUR
0.0
RAIN DAY
0.0
TEMPERATURE (°C)
LOW
14.5
HIGH
34.3
AVERAGE
24.7
PRESSURE (hpa)
LOW
998.8
HIGH
1005.4
AVERAGE
1001.3
DEVICE